Weather at Pietersburg Municipal Airport

Public forecast

Using degrees Celsius for public forecast. Weather courtesy of forecast.io.

Closest aviation weather report (METAR) to Pietersburg Municipal Airport

Closest report is Polokwane International Airport, 5.1 nm (9.4 km) NNW. Retrieved 2021/10/17 23:00 UTC (1 hour ago):

FAPP 172300Z AUTO 04011KT //// // ////// 14/12 Q1019

Closest aviation forecast (TAF) to Pietersburg Municipal Airport

Forecast is more than 12 hours old.

Closest forecast is Polokwane International Airport, 5.1 nm (9.4 km) NNW. Retrieved 2021/05/05 07:00 UTC (6 months ago):

TAF FAPP 050600Z 0507/0518 19006KT CAVOK TX24/0512Z TN15/0518Z